Impacts METAR Board
IDs:

KLGA - New York/La Guardia, NY, US

Updated at: 1500 UTC 23 May 2018
Potential Impact None Slight Moderate High
Time 23/03Z 23/04Z 23/05Z 23/06Z 23/07Z 23/08Z 23/09Z 23/10Z 23/11Z 23/12Z 23/13Z 23/14Z 23/15Z
Temp58 58 58 58 59 60 60 61 62 64 67 68 71
Dewpt55 55 55 55 56 58 58 58 59 59 60 60 61
Altim29.98 29.96 29.94 29.93 29.91 29.88 29.90 29.89 29.90 29.91 29.92 29.92 29.94
VIS8 5 3 3 3 2 3 3 8 10 10 10 10
CIG7 6 9 8 10 8 12 110 130 130 55 40 60
CoverOVCOVCOVCOVCOVCOVCOVCBKNBKNBKNBKNOVCBKN
FltCatIFRIFRIFRIFRMVFRIFRMVFRMVFRVFRVFRVFRVFRVFR
WX--BRBRBR-RA BR-RA BR-RA BRBR----------
WDir803050500170000270310320330
WSpd3 5 3 5 0 6 0 0 0 3 3 6 10
WGst-- -- -- -- -- -- -- -- -- -- -- -- --
Raw hourly METARs
KLGA 230251Z 08003KT 8SM OVC007 14/13 A2998 RMK AO2 SLP152 T01440128 58009 $
KLGA 230351Z 03005KT 5SM BR OVC006 14/13 A2996 RMK AO2 SLP145 T01440128 $
KLGA 230451Z 05003KT 3SM BR OVC009 14/13 A2994 RMK AO2 SFC VIS 4 SLP137 T01440128 402110133 $
KLGA 230551Z 05005KT 3SM BR OVC008 14/13 A2993 RMK AO2 SFC VIS 4 SLP135 T01440128 10144 20139 56017 $
KLGA 230651Z 00000KT 3SM -RA BR SCT006 OVC010 15/13 A2991 RMK AO2 SFC VIS 4 RAB34 SLP129 P0001 T01500133 $
KLGA 230751Z 17006KT 2SM -RA BR BKN008 BKN038 OVC100 16/14 A2988 RMK AO2 SFC VIS 3 LTG DSNT SW SLP119 P0015 T01560144 $
KLGA 230851Z 00000KT 3SM -RA BR SCT006 OVC012 16/14 A2990 RMK AO2 SFC VIS 4 LTG DSNT SE SLP124 P0005 60021 T01560144 55010 $
KLGA 230951Z 00000KT 3SM BR FEW007 SCT012 BKN110 BKN160 16/14 A2989 RMK AO2 SFC VIS 5 RAE0857 SLP120 P0000 T01610144 $
KLGA 231051Z 00000KT 8SM FEW065 SCT100 BKN130 BKN250 17/15 A2990 RMK AO2 SLP125 T01670150 $
KLGA 231151Z 27003KT 10SM FEW010 FEW030 SCT100 BKN130 BKN250 18/15 A2991 RMK AO2 SLP129 60021 70042 T01780150 10178 20144 53009 $
KLGA 231251Z 31003KT 10SM BKN055 BKN130 BKN250 19/16 A2992 RMK AO2 SLP132 T01940156 $
KLGA 231351Z 32006KT 10SM FEW012 BKN040 OVC130 20/16 A2992 RMK AO2 SLP131 T02000156 $
KLGA 231451Z 33010KT 10SM SCT022 BKN060 BKN130 22/16 A2994 RMK AO2 SLP137 T02170161 53008



Page loaded:  15:06 UTC  |   08:06 AM Pacific  |   09:06 AM Mountain  |   10:06 AM Central  |   11:06 AM Eastern

 

ADVISORIES

FORECASTS

FORECASTS

OBSERVATIONS

USER TOOLS

ABOUT US